Terminal Aerodrome Forecast
Issued by NWS

Home | Current Version | Previous Version | Text Only | Print | Product List | Glossary On
Versions: 1 2 3 4 5 6 7 8 9 10 11 12 13 14 15 16 17
000
FTUS46 KMFR 312300
TAFOTH
TAF
KOTH 312320Z 0100/0124 36018G30KT P6SM SKC
     FM010300 36012G20KT P6SM SKC
     FM010600 01010KT P6SM OVC006
     FM010900 VRB03KT 2SM BR OVC003
     FM011500 VRB03KT P6SM BKN005
     FM011700 36010KT P6SM SKC
     FM012000 36018G30KT P6SM SKC=

USA.gov is the U.S. government's official web portal to all federal, state and local government web resources and services.